createdAt,value
2023-04-18T00:00:59.554Z,100.00
2023-04-18T00:06:01.059Z,100.00
2023-04-18T00:11:02.591Z,100.00
2023-04-18T00:16:04.272Z,100.00
2023-04-18T00:21:06.788Z,100.00
2023-04-18T00:26:08.614Z,100.00
2023-04-18T00:31:10.235Z,100.00
2023-04-18T00:36:11.825Z,100.00
2023-04-18T00:41:13.341Z,100.00
2023-04-18T00:46:14.967Z,100.00
2023-04-18T00:51:16.688Z,100.00
2023-04-18T00:56:18.232Z,100.00
2023-04-18T01:01:19.749Z,100.00
2023-04-18T01:06:21.527Z,100.00
2023-04-18T01:11:23.161Z,100.00
2023-04-18T01:16:25.106Z,100.00
2023-04-18T01:21:27.024Z,100.00
2023-04-18T01:26:29.233Z,100.00
2023-04-18T01:31:34.575Z,100.00
2023-04-18T01:36:38.361Z,100.00
2023-04-18T01:41:42.049Z,100.00
2023-04-18T01:46:44.650Z,100.00
2023-04-18T01:51:46.392Z,100.00
2023-04-18T01:56:49.018Z,100.00
2023-04-18T02:01:51.677Z,100.00
2023-04-18T02:06:53.705Z,100.00
2023-04-18T02:11:55.537Z,100.00
2023-04-18T02:17:01.284Z,100.00
2023-04-18T02:22:03.134Z,100.00
2023-04-18T02:27:06.302Z,100.00
2023-04-18T02:32:08.243Z,100.00
2023-04-18T02:37:10.140Z,100.00
2023-04-18T02:42:14.326Z,100.00
2023-04-18T02:47:16.033Z,100.00
2023-04-18T02:52:20.548Z,100.00
2023-04-18T02:57:22.448Z,100.00
2023-04-18T03:02:35.839Z,100.00
2023-04-18T03:07:51.198Z,100.00
2023-04-18T03:12:53.836Z,100.00
2023-04-18T03:17:56.975Z,100.00
2023-04-18T03:23:00.237Z,100.00
2023-04-18T03:28:04.968Z,100.00
2023-04-18T03:33:08.584Z,100.00
2023-04-18T03:38:10.251Z,100.00
2023-04-18T03:43:14.624Z,100.00
2023-04-18T03:48:16.654Z,100.00
2023-04-18T03:53:20.337Z,100.00
2023-04-18T04:03:26.024Z,100.00
2023-04-18T04:08:28.364Z,100.00
2023-04-18T04:13:30.362Z,100.00
2023-04-18T04:18:33.943Z,100.00
2023-04-18T04:23:38.286Z,100.00
2023-04-18T04:28:40.516Z,100.00
2023-04-18T04:33:42.946Z,100.00
2023-04-18T04:38:50.826Z,100.00
2023-04-18T04:43:54.726Z,100.00
2023-04-18T04:49:01.540Z,100.00
2023-04-18T04:54:03.922Z,100.00
2023-04-18T04:59:05.691Z,100.00
2023-04-18T05:04:11.499Z,100.00
2023-04-18T05:09:13.123Z,100.00
2023-04-18T05:14:15.126Z,100.00
2023-04-18T05:19:16.920Z,100.00
2023-04-18T05:24:18.670Z,100.00
2023-04-18T05:29:20.303Z,100.00
2023-04-18T05:34:21.830Z,100.00
2023-04-18T05:39:23.339Z,100.00
2023-04-18T05:44:24.924Z,100.00
2023-04-18T05:49:26.463Z,100.00
2023-04-18T05:54:27.993Z,100.00
2023-04-18T05:59:29.519Z,100.00
2023-04-18T06:04:31.247Z,100.00
2023-04-18T06:09:32.917Z,100.00
2023-04-18T06:14:34.441Z,100.00
2023-04-18T06:19:35.962Z,100.00
2023-04-18T06:24:37.457Z,100.00
2023-04-18T06:29:39.042Z,100.00
2023-04-18T06:34:40.649Z,100.00
2023-04-18T06:39:42.175Z,100.00
2023-04-18T06:44:43.743Z,100.00
2023-04-18T06:49:45.285Z,100.00
2023-04-18T06:54:46.765Z,100.00
2023-04-18T06:59:48.281Z,98.26
2023-04-18T07:04:49.798Z,95.87
2023-04-18T07:09:51.346Z,92.82
2023-04-18T07:14:53.979Z,93.76
2023-04-18T07:19:55.504Z,96.23
2023-04-18T07:24:57.015Z,94.96
2023-04-18T07:29:58.569Z,97.31
2023-04-18T07:35:00.154Z,93.63
2023-04-18T07:40:01.781Z,89.53
2023-04-18T07:45:03.646Z,95.78
2023-04-18T07:50:05.588Z,100.00
2023-04-18T07:55:07.556Z,100.00
2023-04-18T08:00:09.789Z,99.30
2023-04-18T08:05:19.496Z,95.58
2023-04-18T08:10:23.256Z,95.83
2023-04-18T08:15:25.410Z,90.50
2023-04-18T08:20:27.203Z,88.07
2023-04-18T08:25:28.978Z,91.43
2023-04-18T08:30:30.562Z,92.80
2023-04-18T08:35:32.130Z,95.34
2023-04-18T08:40:33.873Z,96.45
2023-04-18T08:45:35.535Z,95.23
2023-04-18T08:50:37.070Z,94.85
2023-04-18T08:55:38.619Z,93.49
2023-04-18T09:00:40.152Z,96.89
2023-04-18T09:05:41.772Z,91.77
2023-04-18T09:10:44.810Z,96.36
2023-04-18T09:15:54.930Z,94.10
2023-04-18T09:20:56.541Z,98.71
2023-04-18T09:25:58.124Z,94.54
2023-04-18T09:31:11.228Z,98.04
2023-04-18T09:36:24.890Z,93.32
2023-04-18T09:41:26.467Z,94.17
2023-04-18T09:46:28.418Z,94.57
2023-04-18T09:51:31.644Z,89.22
2023-04-18T09:56:36.465Z,84.40
2023-04-18T10:01:39.018Z,78.18
2023-04-18T10:06:41.148Z,71.54
2023-04-18T10:11:43.733Z,65.66
2023-04-18T10:16:45.413Z,68.98
2023-04-18T10:22:01.061Z,74.54
2023-04-18T10:27:02.662Z,74.96
2023-04-18T10:32:06.250Z,73.97
2023-04-18T10:37:07.848Z,77.25
2023-04-18T10:42:09.413Z,79.68
2023-04-18T10:47:29.000Z,80.83
2023-04-18T10:52:31.148Z,83.32
2023-04-18T10:57:40.366Z,79.16
2023-04-18T11:02:49.258Z,79.71
2023-04-18T11:07:51.208Z,76.94
2023-04-18T11:12:55.337Z,82.22
2023-04-18T11:18:00.383Z,79.03
2023-04-18T11:23:01.976Z,74.45
2023-04-18T11:28:04.504Z,76.60
2023-04-18T11:33:07.984Z,73.42
2023-04-18T11:38:12.730Z,76.18
2023-04-18T11:48:22.648Z,80.12
2023-04-18T11:53:38.023Z,79.24
2023-04-18T11:58:39.786Z,79.24
2023-04-18T12:03:41.599Z,76.81
2023-04-18T12:08:43.310Z,76.64
2023-04-18T12:13:45.998Z,74.48
2023-04-18T12:18:47.553Z,72.99
2023-04-18T12:23:49.068Z,70.90
2023-04-18T12:28:51.343Z,67.19
2023-04-18T12:33:52.910Z,67.09
2023-04-18T12:38:54.477Z,72.90
2023-04-18T12:43:56.043Z,73.95
2023-04-18T12:48:57.564Z,75.84
2023-04-18T12:53:59.185Z,73.79
2023-04-18T12:59:00.719Z,74.32
2023-04-18T13:04:11.814Z,74.39
2023-04-18T13:09:14.962Z,71.62
2023-04-18T13:14:16.756Z,66.36
2023-04-18T13:19:18.269Z,67.29
2023-04-18T13:24:19.772Z,69.66
2023-04-18T13:29:21.292Z,67.50
2023-04-18T13:34:22.806Z,68.31
2023-04-18T13:39:24.390Z,74.42
2023-04-18T13:44:25.889Z,70.16
2023-04-18T13:49:27.894Z,71.86
2023-04-18T13:54:31.091Z,73.73
2023-04-18T13:59:33.425Z,72.04
2023-04-18T14:04:35.785Z,72.37
2023-04-18T14:09:37.418Z,69.39
2023-04-18T14:14:39.063Z,71.69
2023-04-18T14:19:40.578Z,66.22
2023-04-18T14:24:42.210Z,66.76
2023-04-18T14:29:43.718Z,66.02
2023-04-18T14:34:45.275Z,63.49
2023-04-18T14:39:46.788Z,67.52
2023-04-18T14:44:48.299Z,68.24
2023-04-18T14:49:49.801Z,69.75
2023-04-18T14:54:51.369Z,69.61
2023-04-18T14:59:53.007Z,66.66
2023-04-18T15:04:54.590Z,69.19
2023-04-18T15:09:56.169Z,68.08
2023-04-18T15:14:59.676Z,65.84
2023-04-18T15:20:01.227Z,69.17
2023-04-18T15:25:03.627Z,67.57
2023-04-18T15:30:05.882Z,65.22
2023-04-18T15:35:08.871Z,63.48
2023-04-18T15:40:10.817Z,62.80
2023-04-18T15:45:12.513Z,65.85
2023-04-18T15:50:14.136Z,63.20
2023-04-18T15:55:15.669Z,64.47
2023-04-18T16:00:17.715Z,61.40
2023-04-18T16:05:19.264Z,59.66
2023-04-18T16:10:20.826Z,59.59
2023-04-18T16:15:22.418Z,59.80
2023-04-18T16:20:24.174Z,61.60
2023-04-18T16:25:25.982Z,62.42
2023-04-18T16:30:27.521Z,64.99
2023-04-18T16:35:29.251Z,65.59
2023-04-18T16:40:30.787Z,65.86
2023-04-18T16:45:32.900Z,66.05
2023-04-18T16:50:34.405Z,65.80
2023-04-18T16:55:35.919Z,65.27
2023-04-18T17:00:38.495Z,66.49
2023-04-18T17:05:40.351Z,67.46
2023-04-18T17:10:41.918Z,66.62
2023-04-18T17:15:43.430Z,65.45
2023-04-18T17:20:45.033Z,65.13
2023-04-18T17:25:46.558Z,68.68
2023-04-18T17:30:48.068Z,67.59
2023-04-18T17:35:49.633Z,67.97
2023-04-18T17:41:09.000Z,69.21
2023-04-18T17:46:10.684Z,69.75
2023-04-18T17:51:12.372Z,70.17
2023-04-18T17:56:14.059Z,72.79
2023-04-18T18:01:17.468Z,72.21
2023-04-18T18:06:19.039Z,72.17
2023-04-18T18:11:20.538Z,73.22
2023-04-18T18:16:22.242Z,73.08
2023-04-18T18:21:23.823Z,72.57
2023-04-18T18:26:25.382Z,72.92
2023-04-18T18:31:26.951Z,72.96
2023-04-18T18:36:28.637Z,73.05
2023-04-18T18:41:30.231Z,73.88
2023-04-18T18:46:31.795Z,74.76
2023-04-18T18:51:33.340Z,74.56
2023-04-18T18:56:34.924Z,76.08
2023-04-18T19:01:36.608Z,75.97
2023-04-18T19:06:38.383Z,76.38
2023-04-18T19:11:39.929Z,76.39
2023-04-18T19:16:41.585Z,77.43
2023-04-18T19:21:43.610Z,77.77
2023-04-18T19:26:45.116Z,77.26
2023-04-18T19:31:46.754Z,77.11
2023-04-18T19:36:48.504Z,76.78
2023-04-18T19:41:50.084Z,77.71
2023-04-18T19:46:51.702Z,78.19
2023-04-18T19:51:53.368Z,78.17
2023-04-18T19:56:55.654Z,79.05
2023-04-18T20:01:59.489Z,77.74
2023-04-18T20:07:03.326Z,79.09
2023-04-18T20:12:05.074Z,79.07
2023-04-18T20:17:06.838Z,78.83
2023-04-18T20:22:08.528Z,79.19
2023-04-18T20:27:10.658Z,78.58
2023-04-18T20:32:12.514Z,79.06
2023-04-18T20:37:14.107Z,79.46
2023-04-18T20:42:15.798Z,79.40
2023-04-18T20:47:17.426Z,82.67
2023-04-18T20:52:19.005Z,82.88
2023-04-18T20:57:20.525Z,83.66
2023-04-18T21:02:22.149Z,82.82
2023-04-18T21:07:23.803Z,82.71
2023-04-18T21:12:25.413Z,83.03
2023-04-18T21:17:27.010Z,84.61
2023-04-18T21:22:28.538Z,84.57
2023-04-18T21:27:30.331Z,85.86
2023-04-18T21:32:31.911Z,86.02
2023-04-18T21:37:33.592Z,86.25
2023-04-18T21:42:35.809Z,86.33
2023-04-18T21:47:37.380Z,87.45
2023-04-18T21:52:38.871Z,87.48
2023-04-18T21:57:40.501Z,88.78
2023-04-18T22:02:42.141Z,88.28
2023-04-18T22:07:56.943Z,88.96
2023-04-18T22:12:59.448Z,88.97
2023-04-18T22:18:01.014Z,88.89
2023-04-18T22:23:03.001Z,89.92
2023-04-18T22:28:04.878Z,90.56
2023-04-18T22:33:06.488Z,91.92
2023-04-18T22:38:08.165Z,92.53
2023-04-18T22:43:09.724Z,93.66
2023-04-18T22:48:11.406Z,92.93
2023-04-18T22:53:13.464Z,92.43
2023-04-18T22:58:15.101Z,92.30
2023-04-18T23:03:16.857Z,92.91
2023-04-18T23:08:18.474Z,94.07
2023-04-18T23:13:20.131Z,95.23
2023-04-18T23:18:21.675Z,97.38
2023-04-18T23:23:23.248Z,95.92
2023-04-18T23:28:24.900Z,94.41
2023-04-18T23:33:26.441Z,95.08
2023-04-18T23:38:28.066Z,96.70
2023-04-18T23:43:29.662Z,95.34
2023-04-18T23:48:31.251Z,95.53
2023-04-18T23:53:32.904Z,95.87
2023-04-18T23:58:34.500Z,97.15
